Time;durP1;ratioP1;P1;durP2;ratioP2;P2;SDS_P1;SDS_P2;PMS_P1;PMS_P2;Temp;Humidity;BMP_temperature;BMP_pressure;BME280_temperature;BME280_humidity;BME280_pressure;Samples;Min_cycle;Max_cycle;Signal;HPM_P1;HPM_P2
2022/10/30 00:02:05;;;;;;;12.73;7.18;;;;;;;13.95;87.81;101580.56;4992116;28;20117;-71
2022/10/30 00:04:31;;;;;;;19.30;8.15;;;;;;;13.96;87.56;101584.16;4990332;28;20542;-72
2022/10/30 00:06:56;;;;;;;16.75;7.38;;;;;;;13.93;87.50;101587.13;4974296;28;20061;-72
2022/10/30 00:09:22;;;;;;;20.95;8.38;;;;;;;13.91;87.78;101587.25;5003654;28;20052;-71
2022/10/30 00:11:47;;;;;;;15.63;7.38;;;;;;;13.90;87.83;101585.50;5010589;28;20032;-72
2022/10/30 00:14:12;;;;;;;20.63;7.85;;;;;;;13.90;88.23;101584.63;4994189;28;20022;-71
2022/10/30 00:16:38;;;;;;;16.83;7.72;;;;;;;13.88;87.88;101592.06;4992040;28;20026;-72
2022/10/30 00:19:03;;;;;;;24.30;8.40;;;;;;;13.88;88.24;101583.84;4992530;28;20037;-71
2022/10/30 00:21:29;;;;;;;15.73;7.40;;;;;;;13.85;88.15;101584.97;4991309;28;20464;-72
2022/10/30 00:23:54;;;;;;;14.93;9.15;;;;;;;13.83;88.27;101595.13;4991617;28;20034;-72
2022/10/30 00:26:23;;;;;;;19.52;8.20;;;;;;;13.79;88.78;101588.13;4991916;28;20099;-72
2022/10/30 00:28:53;;;;;;;16.85;9.07;;;;;;;13.74;88.41;101585.75;4996180;28;20367;-71
2022/10/30 00:31:18;;;;;;;18.00;8.65;;;;;;;13.73;88.66;101581.28;4992140;28;20525;-71
2022/10/30 00:33:48;;;;;;;18.33;7.57;;;;;;;13.76;88.67;101586.53;4990574;28;20129;-72
2022/10/30 00:36:13;;;;;;;17.95;7.85;;;;;;;13.73;88.55;101583.13;4989729;28;20050;-71
2022/10/30 00:38:40;;;;;;;23.70;7.75;;;;;;;13.70;88.83;101583.34;4974421;28;20466;-71
2022/10/30 00:41:06;;;;;;;24.10;7.78;;;;;;;13.64;88.52;101581.06;4990365;28;20121;-71
2022/10/30 00:43:37;;;;;;;20.15;7.72;;;;;;;13.63;89.04;101577.47;4989933;28;20846;-71
2022/10/30 00:46:35;;;;;;;18.92;7.70;;;;;;;13.62;88.71;101577.59;4991236;28;20042;-71
2022/10/30 00:49:10;;;;;;;17.08;8.18;;;;;;;13.59;89.01;101578.69;4997091;28;20094;-71
2022/10/30 00:51:37;;;;;;;21.25;7.63;;;;;;;13.56;89.11;101578.03;5001725;28;20038;-71
2022/10/30 00:54:05;;;;;;;17.88;7.75;;;;;;;13.50;89.26;101577.50;4991187;28;20501;-72
2022/10/30 00:56:31;;;;;;;13.85;8.40;;;;;;;13.53;89.51;101571.81;4990201;28;20419;-71
2022/10/30 00:59:01;;;;;;;19.48;7.40;;;;;;;13.51;89.12;101575.63;4989929;28;20069;-71
2022/10/30 01:01:28;;;;;;;18.10;7.93;;;;;;;13.52;89.11;101578.28;4990777;28;20042;-72
2022/10/30 01:03:59;;;;;;;23.08;8.35;;;;;;;13.50;89.29;101572.03;4999031;28;20030;-71
2022/10/30 01:06:26;;;;;;;14.25;7.60;;;;;;;13.49;89.48;101585.81;4989709;28;20037;-71
2022/10/30 01:08:53;;;;;;;19.50;7.70;;;;;;;13.49;89.44;101580.34;4982673;28;20046;-71
2022/10/30 01:11:19;;;;;;;18.55;7.65;;;;;;;13.46;89.29;101578.69;4991184;28;20072;-72
2022/10/30 01:13:47;;;;;;;18.67;7.75;;;;;;;13.47;89.43;101580.44;4990168;28;20061;-71
2022/10/30 01:16:25;;;;;;;16.58;7.35;;;;;;;13.47;89.63;101579.56;4992503;28;20053;-71
2022/10/30 01:19:23;;;;;;;15.48;7.18;;;;;;;13.44;89.05;101577.06;5006532;28;20038;-71
2022/10/30 01:22:17;;;;;;;15.80;7.65;;;;;;;13.41;89.53;101585.50;5006963;28;20041;-72
2022/10/30 01:25:10;;;;;;;18.52;7.57;;;;;;;13.38;89.18;101580.22;5007689;28;20088;-71
2022/10/30 01:27:56;;;;;;;14.00;7.40;;;;;;;13.37;89.50;101581.22;5008561;28;20033;-72
2022/10/30 01:30:24;;;;;;;19.92;8.85;;;;;;;13.31;89.92;101584.41;4996229;28;20041;-71
2022/10/30 01:33:23;;;;;;;15.38;7.35;;;;;;;13.27;90.16;101584.63;4997523;28;20033;-71
2022/10/30 01:36:06;;;;;;;13.75;7.03;;;;;;;13.19;90.38;101575.19;4988404;28;20486;-72
2022/10/30 01:38:43;;;;;;;14.18;7.80;;;;;;;13.23;90.59;101583.09;4990595;28;20493;-72
2022/10/30 01:41:08;;;;;;;19.52;7.30;;;;;;;13.21;90.69;101598.69;4973069;28;20034;-72
2022/10/30 01:43:36;;;;;;;17.67;7.45;;;;;;;13.16;90.61;101600.03;4989101;28;20030;-71
2022/10/30 01:46:16;;;;;;;13.90;7.40;;;;;;;13.12;90.64;101590.28;4994164;28;20048;-71
2022/10/30 01:49:24;;;;;;;13.90;7.82;;;;;;;13.15;90.52;101593.69;4999900;28;20034;-72
2022/10/30 01:52:14;;;;;;;18.50;8.25;;;;;;;13.17;90.37;101594.44;4985884;28;20106;-72
2022/10/30 01:54:46;;;;;;;13.95;7.43;;;;;;;13.11;90.81;101588.56;4999989;28;20030;-71
2022/10/30 01:57:23;;;;;;;19.77;7.70;;;;;;;13.09;91.38;101591.38;4990183;28;20037;-72
2022/10/30 02:00:12;;;;;;;20.92;8.05;;;;;;;13.09;90.99;101596.84;5002350;28;20653;-71
2022/10/30 02:02:47;;;;;;;15.38;7.60;;;;;;;13.03;90.90;101594.53;5004259;28;20077;-73
2022/10/30 02:05:23;;;;;;;18.08;7.47;;;;;;;12.99;91.25;101601.22;5007950;28;20036;-71
2022/10/30 02:07:49;;;;;;;25.83;7.85;;;;;;;13.00;91.66;101606.56;4998799;28;20052;-72
2022/10/30 02:10:15;;;;;;;20.08;8.32;;;;;;;13.00;91.44;101605.69;5006448;28;20338;-71
2022/10/30 02:12:40;;;;;;;22.92;7.80;;;;;;;12.98;91.49;101599.47;5007847;28;20133;-71
2022/10/30 02:15:09;;;;;;;18.90;7.78;;;;;;;12.99;91.81;101606.66;5006620;28;20053;-71
2022/10/30 02:17:34;;;;;;;15.68;7.72;;;;;;;12.93;92.08;101605.25;5006587;28;20038;-71
2022/10/30 02:20:00;;;;;;;16.52;7.88;;;;;;;12.91;92.39;101593.53;4988817;28;20030;-71
2022/10/30 02:22:25;;;;;;;20.45;8.40;;;;;;;12.90;92.42;101597.25;4989830;28;20124;-71
2022/10/30 02:24:50;;;;;;;21.30;7.78;;;;;;;12.87;92.12;101600.22;4988312;28;20036;-71
2022/10/30 02:27:19;;;;;;;15.60;7.60;;;;;;;12.86;92.21;101601.19;4988256;28;20038;-72
2022/10/30 02:29:44;;;;;;;14.10;7.63;;;;;;;12.85;92.51;101606.75;4989562;28;20124;-71
2022/10/30 02:32:09;;;;;;;21.35;9.48;;;;;;;12.82;92.21;101616.03;4987974;28;20034;-72
2022/10/30 02:34:35;;;;;;;18.02;8.13;;;;;;;12.82;93.05;101615.16;4987987;28;20042;-71
2022/10/30 02:37:01;;;;;;;21.83;8.60;;;;;;;12.80;93.31;101611.69;4988463;28;20113;-71
2022/10/30 02:39:26;;;;;;;17.10;8.35;;;;;;;12.76;93.03;101614.59;4988135;28;20034;-72
2022/10/30 02:41:52;;;;;;;15.35;7.93;;;;;;;12.74;92.74;101612.97;5006534;28;20327;-71
2022/10/30 02:44:17;;;;;;;14.77;7.97;;;;;;;12.74;92.92;101622.03;5004038;28;20116;-71
2022/10/30 02:46:43;;;;;;;19.88;8.23;;;;;;;12.74;93.36;101619.31;4989215;28;20036;-71
2022/10/30 02:49:08;;;;;;;14.88;8.02;;;;;;;12.68;93.18;101613.38;4982446;28;20461;-72
2022/10/30 02:51:34;;;;;;;16.95;8.30;;;;;;;12.67;93.38;101614.38;4991604;28;20252;-71
2022/10/30 02:53:59;;;;;;;14.85;7.45;;;;;;;12.67;93.10;101614.38;4975467;28;20042;-71
2022/10/30 02:56:25;;;;;;;19.25;8.48;;;;;;;12.65;93.78;101610.88;4991263;28;20038;-71
2022/10/30 02:58:51;;;;;;;18.73;8.02;;;;;;;12.61;93.68;101614.81;5007452;28;20030;-71
2022/10/30 03:01:18;;;;;;;18.15;8.10;;;;;;;12.57;93.70;101614.13;4992172;28;20454;-72
2022/10/30 03:03:45;;;;;;;16.50;8.18;;;;;;;12.60;93.69;101622.13;5000188;28;20038;-72
2022/10/30 03:06:14;;;;;;;15.73;7.65;;;;;;;12.55;94.00;101602.47;4992705;28;20398;-71
2022/10/30 03:08:41;;;;;;;15.07;8.43;;;;;;;12.55;94.17;101604.31;5008420;28;20056;-71
2022/10/30 03:11:09;;;;;;;19.85;7.55;;;;;;;12.55;93.83;101609.78;4997327;28;20497;-71
2022/10/30 03:13:36;;;;;;;14.82;7.65;;;;;;;12.55;94.35;101607.03;4991032;28;20216;-72
2022/10/30 03:16:07;;;;;;;19.00;8.60;;;;;;;12.54;94.41;101608.88;4986284;28;20033;-72
2022/10/30 03:18:33;;;;;;;13.77;8.10;;;;;;;12.51;94.09;101596.31;4995635;28;20041;-72
2022/10/30 03:21:07;;;;;;;18.90;8.25;;;;;;;12.51;94.20;101603.66;4991215;28;20034;-72
2022/10/30 03:23:33;;;;;;;17.15;7.97;;;;;;;12.48;94.54;101603.84;4998124;28;20099;-73
2022/10/30 03:26:01;;;;;;;18.67;9.30;;;;;;;12.48;95.17;101599.25;5010578;28;20494;-71
2022/10/30 03:28:28;;;;;;;15.88;8.52;;;;;;;12.48;94.86;101604.72;4994774;28;20502;-71
2022/10/30 03:31:05;;;;;;;18.27;8.75;;;;;;;12.49;94.51;101605.59;5001833;28;20128;-71
2022/10/30 03:33:32;;;;;;;16.90;7.97;;;;;;;12.48;94.95;101595.66;4994270;28;20093;-72
2022/10/30 03:35:58;;;;;;;18.20;8.35;;;;;;;12.45;94.68;101598.59;4990487;28;20104;-71
2022/10/30 03:38:24;;;;;;;22.40;8.15;;;;;;;12.43;95.09;101601.44;5006009;28;20050;-71
2022/10/30 03:40:49;;;;;;;18.52;8.98;;;;;;;12.45;95.67;101599.47;4991106;28;20038;-72
2022/10/30 03:43:15;;;;;;;20.48;8.60;;;;;;;12.45;95.26;101604.94;4991115;28;20065;-71
2022/10/30 03:45:48;;;;;;;16.70;8.18;;;;;;;12.46;94.89;101603.09;4992310;28;20045;-71
2022/10/30 03:48:14;;;;;;;20.23;8.57;;;;;;;12.47;95.16;101604.81;4974448;28;20430;-71
2022/10/30 03:50:40;;;;;;;13.40;7.75;;;;;;;12.47;94.64;101613.00;4991855;28;20041;-72
2022/10/30 03:53:06;;;;;;;15.32;7.07;;;;;;;12.45;94.12;101613.13;4992184;28;20038;-71
2022/10/30 03:55:31;;;;;;;17.27;7.45;;;;;;;12.42;94.41;101609.72;5010317;28;20041;-71
2022/10/30 03:57:57;;;;;;;14.30;8.52;;;;;;;12.42;94.71;101609.72;5003660;28;20027;-71
2022/10/30 04:00:23;;;;;;;18.58;8.40;;;;;;;12.43;95.87;101619.66;4992017;28;20034;-72
2022/10/30 04:02:57;;;;;;;21.38;8.68;;;;;;;12.41;95.59;101617.03;4999012;28;20038;-71
2022/10/30 04:05:25;;;;;;;16.20;7.22;;;;;;;12.39;94.96;101621.72;4974175;28;20501;-71
2022/10/30 04:08:06;;;;;;;19.35;7.70;;;;;;;12.34;94.02;101621.16;4990056;28;20042;-72
2022/10/30 04:10:34;;;;;;;17.30;8.23;;;;;;;12.31;94.56;101617.75;5009669;28;20434;-72
2022/10/30 04:13:04;;;;;;;14.02;7.95;;;;;;;12.24;94.21;101620.91;5009928;28;20028;-71
2022/10/30 04:15:30;;;;;;;15.15;7.82;;;;;;;12.21;95.31;101621.09;5005252;28;20034;-71
2022/10/30 04:17:55;;;;;;;14.18;8.00;;;;;;;12.20;95.93;101618.47;4990990;28;20026;-72
2022/10/30 04:20:22;;;;;;;18.20;8.20;;;;;;;12.17;95.64;101616.84;4989261;28;20085;-72
2022/10/30 04:22:48;;;;;;;17.92;8.35;;;;;;;12.11;95.85;101606.31;4991142;28;20026;-71
2022/10/30 04:25:18;;;;;;;19.50;9.13;;;;;;;12.09;95.93;101615.59;4989611;28;20048;-72
2022/10/30 04:27:48;;;;;;;20.42;8.82;;;;;;;12.08;96.28;101613.84;4996028;28;20034;-72
2022/10/30 04:30:14;;;;;;;18.45;8.52;;;;;;;12.07;96.68;101620.25;4990841;28;20048;-72
2022/10/30 04:32:55;;;;;;;18.45;8.43;;;;;;;12.07;96.55;101614.81;4988953;28;20042;-72
2022/10/30 04:35:28;;;;;;;20.95;8.00;;;;;;;12.09;96.73;101624.66;5008438;28;20096;-72
2022/10/30 04:38:02;;;;;;;20.95;8.32;;;;;;;12.08;97.20;101605.69;5007661;28;20123;-72
2022/10/30 04:40:30;;;;;;;17.60;8.07;;;;;;;12.07;96.93;101610.22;5009313;28;20029;-72
2022/10/30 04:43:01;;;;;;;22.38;8.68;;;;;;;12.08;97.74;101603.81;5009514;28;20155;-71
2022/10/30 04:45:27;;;;;;;15.07;7.72;;;;;;;12.07;96.85;101602.03;5004821;28;20034;-71
2022/10/30 04:48:03;;;;;;;17.00;9.02;;;;;;;12.06;97.45;101593.97;5007222;28;20386;-72
2022/10/30 04:50:31;;;;;;;17.30;9.32;;;;;;;12.06;97.59;101592.13;4990401;28;20027;-71
2022/10/30 04:53:13;;;;;;;18.00;8.50;;;;;;;12.07;97.44;101582.94;4989974;28;20077;-72
2022/10/30 04:55:39;;;;;;;22.52;8.38;;;;;;;12.06;98.01;101580.34;5008993;28;20037;-72
2022/10/30 04:58:06;;;;;;;21.50;9.27;;;;;;;12.10;97.71;101576.44;5010817;28;20040;-71
2022/10/30 05:00:35;;;;;;;21.42;8.60;;;;;;;12.10;96.75;101590.06;5002129;28;20135;-72
2022/10/30 05:03:23;;;;;;;21.25;7.63;;;;;;;12.08;97.20;101579.28;4997343;28;20510;-72
2022/10/30 05:06:22;;;;;;;17.10;7.60;;;;;;;12.08;96.44;101590.19;4989016;28;20038;-72
2022/10/30 05:08:48;;;;;;;18.40;7.97;;;;;;;12.09;97.61;101585.59;5002376;28;20042;-73
2022/10/30 05:11:24;;;;;;;19.20;8.30;;;;;;;12.08;96.89;101590.19;5005122;28;20092;-72
2022/10/30 05:13:49;;;;;;;19.00;9.25;;;;;;;12.10;97.08;101584.63;4989821;28;20470;-73
2022/10/30 05:16:15;;;;;;;24.60;8.65;;;;;;;12.07;96.82;101588.41;4989089;28;20412;-72
2022/10/30 05:18:41;;;;;;;17.42;8.35;;;;;;;12.11;97.44;101589.09;4999542;28;20042;-72
2022/10/30 05:21:06;;;;;;;15.68;7.95;;;;;;;12.09;96.71;101586.47;4992641;28;20034;-71
2022/10/30 05:23:32;;;;;;;13.73;7.43;;;;;;;12.00;96.50;101585.22;4989905;28;20426;-72
2022/10/30 05:26:02;;;;;;;13.40;8.20;;;;;;;12.03;97.04;101583.25;4988296;28;20058;-72
2022/10/30 05:28:28;;;;;;;25.10;9.30;;;;;;;12.03;97.76;101588.72;4988036;28;20133;-72
2022/10/30 05:30:55;;;;;;;19.52;7.97;;;;;;;11.97;96.21;101593.59;4988563;28;20022;-72
2022/10/30 05:33:47;;;;;;;15.85;8.02;;;;;;;11.91;95.81;101604.06;4977105;28;20108;-72
2022/10/30 05:36:12;;;;;;;17.02;7.80;;;;;;;11.83;96.01;101601.81;4988104;28;20050;-72
2022/10/30 05:38:38;;;;;;;19.00;8.77;;;;;;;11.77;96.69;101606.78;4996547;28;20033;-72
2022/10/30 05:41:06;;;;;;;14.82;7.90;;;;;;;11.67;97.04;101603.78;5009595;28;20042;-72
2022/10/30 05:43:31;;;;;;;23.27;8.05;;;;;;;11.62;98.33;101598.63;5008072;28;20469;-72
2022/10/30 05:45:58;;;;;;;18.33;7.93;;;;;;;11.58;97.57;101602.53;4996282;28;20054;-72
2022/10/30 05:48:23;;;;;;;18.00;8.40;;;;;;;11.53;97.39;101596.50;4987658;28;20523;-72
2022/10/30 05:50:49;;;;;;;16.55;8.27;;;;;;;11.52;97.38;101602.03;4987497;28;20034;-73
2022/10/30 05:53:26;;;;;;;14.63;8.30;;;;;;;11.45;97.04;101602.44;4991772;28;20018;-72
2022/10/30 05:55:57;;;;;;;15.05;7.43;;;;;;;11.41;97.24;101595.41;5007419;28;20063;-72
2022/10/30 05:58:23;;;;;;;18.42;7.93;;;;;;;11.36;96.96;101585.78;5004881;28;20466;-72
2022/10/30 06:00:49;;;;;;;20.33;8.57;;;;;;;11.32;97.39;101596.00;4987744;28;20089;-72
2022/10/30 06:03:24;;;;;;;14.60;8.77;;;;;;;11.31;98.19;101596.97;4996293;28;20509;-72
2022/10/30 06:05:50;;;;;;;17.33;7.20;;;;;;;11.28;96.58;101602.63;4987648;28;20038;-72
2022/10/30 06:08:18;;;;;;;12.07;7.65;;;;;;;11.24;96.57;101598.38;4999642;28;20161;-71
2022/10/30 06:10:45;;;;;;;14.70;8.38;;;;;;;11.20;97.18;101592.22;4987759;28;20034;-71
2022/10/30 06:13:35;;;;;;;12.40;7.30;;;;;;;11.14;96.50;101598.03;4988464;28;20050;-71
2022/10/30 06:16:06;;;;;;;15.95;7.85;;;;;;;11.11;96.39;101603.69;4993209;28;20041;-71
2022/10/30 06:18:50;;;;;;;15.57;8.18;;;;;;;11.10;97.32;101599.22;4996224;28;20041;-72
2022/10/30 06:21:16;;;;;;;12.35;7.40;;;;;;;11.03;96.87;101591.53;4996543;28;20494;-71
2022/10/30 06:23:48;;;;;;;20.63;8.50;;;;;;;10.99;97.86;101590.84;5001695;28;20412;-71
2022/10/30 06:26:36;;;;;;;19.40;8.70;;;;;;;10.96;98.59;101585.59;5000586;28;20030;-72
2022/10/30 06:29:07;;;;;;;14.82;7.82;;;;;;;10.92;98.53;101587.63;4992741;28;20030;-72
2022/10/30 06:31:32;;;;;;;12.07;7.63;;;;;;;10.87;97.02;101591.63;4995428;28;20038;-72
2022/10/30 06:33:59;;;;;;;18.00;6.88;;;;;;;10.82;96.98;101588.28;4994853;28;20433;-72
2022/10/30 06:36:24;;;;;;;17.88;6.97;;;;;;;10.78;97.06;101589.47;4994074;28;20042;-71
2022/10/30 06:38:51;;;;;;;14.10;7.15;;;;;;;10.76;97.38;101589.53;4994690;28;20041;-72
2022/10/30 06:41:19;;;;;;;17.55;6.85;;;;;;;10.77;96.98;101604.00;4994709;28;20034;-72
2022/10/30 06:44:03;;;;;;;17.75;7.25;;;;;;;10.76;96.52;101589.53;5014773;28;20087;-72
2022/10/30 06:46:30;;;;;;;16.50;8.13;;;;;;;10.80;98.62;101585.66;4998139;28;20031;-72
2022/10/30 06:48:56;;;;;;;23.38;8.40;;;;;;;10.85;98.27;101593.53;4996601;28;20033;-72
2022/10/30 06:51:21;;;;;;;17.85;7.75;;;;;;;10.86;98.24;101598.88;4999915;28;20034;-72
2022/10/30 06:53:47;;;;;;;13.02;7.43;;;;;;;10.85;97.30;101599.84;5002703;28;20063;-72
2022/10/30 06:56:30;;;;;;;17.73;9.50;;;;;;;10.89;98.99;101593.25;5004284;28;20527;-72
2022/10/30 06:59:13;;;;;;;16.65;8.38;;;;;;;10.87;97.62;101586.16;4998186;28;20401;-72
2022/10/30 07:01:55;;;;;;;21.60;8.38;;;;;;;10.84;98.47;101580.91;5003619;28;20026;-71
2022/10/30 07:04:21;;;;;;;14.93;7.18;;;;;;;10.81;97.96;101581.94;4982711;28;20525;-72
2022/10/30 07:06:47;;;;;;;17.90;8.63;;;;;;;10.82;98.57;101571.94;4999966;28;20057;-72
2022/10/30 07:09:12;;;;;;;24.17;9.32;;;;;;;10.84;98.98;101573.59;4998423;28;20081;-72
2022/10/30 07:11:41;;;;;;;14.90;8.20;;;;;;;10.91;98.71;101568.66;4998167;28;20142;-72
2022/10/30 07:14:39;;;;;;;14.02;7.88;;;;;;;10.96;98.81;101581.03;4983080;28;20465;-73
2022/10/30 07:17:12;;;;;;;19.63;8.43;;;;;;;11.02;99.01;101576.16;4981425;28;20038;-72
2022/10/30 07:19:40;;;;;;;14.23;8.07;;;;;;;11.00;98.43;101581.69;5004257;28;20089;-72
2022/10/30 07:22:06;;;;;;;16.08;8.00;;;;;;;11.03;97.83;101584.22;5004053;28;20986;-72
2022/10/30 07:24:33;;;;;;;24.02;9.20;;;;;;;11.08;97.80;101584.81;4990962;28;20038;-72
2022/10/30 07:27:17;;;;;;;14.43;7.22;;;;;;;11.12;98.41;101580.06;5005253;28;20151;-72
2022/10/30 07:29:52;;;;;;;14.52;8.27;;;;;;;11.16;97.83;101581.63;4995352;28;20044;-72
2022/10/30 07:32:23;;;;;;;14.65;8.90;;;;;;;11.20;98.16;101581.31;4993657;28;20463;-72
2022/10/30 07:35:09;;;;;;;18.92;9.13;;;;;;;11.23;98.68;101582.97;4991270;28;20136;-73
2022/10/30 07:38:11;;;;;;;11.63;7.47;;;;;;;11.26;98.54;101587.34;5015215;28;20060;-72
2022/10/30 07:40:59;;;;;;;15.10;7.15;;;;;;;11.31;97.93;101588.81;4990697;28;20096;-73
2022/10/30 07:43:42;;;;;;;12.73;7.38;;;;;;;11.42;98.17;101588.13;4995967;28;20049;-73
2022/10/30 07:46:26;;;;;;;13.88;8.15;;;;;;;11.53;99.22;101579.28;4998949;28;20045;-73
2022/10/30 07:49:20;;;;;;;15.82;8.48;;;;;;;11.61;99.68;101583.25;4999140;28;20040;-73
2022/10/30 07:51:48;;;;;;;14.95;7.93;;;;;;;11.71;99.70;101578.94;5005856;28;20037;-74
2022/10/30 07:54:13;;;;;;;12.65;8.02;;;;;;;11.77;99.34;101568.63;4999445;28;20486;-73
2022/10/30 07:56:39;;;;;;;20.92;9.27;;;;;;;11.84;99.38;101578.16;4990388;28;20023;-73
2022/10/30 07:59:23;;;;;;;15.38;8.00;;;;;;;11.90;99.36;101575.91;4991637;28;20141;-74
2022/10/30 08:02:12;;;;;;;15.90;8.30;;;;;;;11.98;99.36;101592.66;4995574;28;20037;-73
2022/10/30 08:04:57;;;;;;;18.85;8.63;;;;;;;12.07;99.41;101588.41;4992799;28;20042;-73
2022/10/30 08:07:47;;;;;;;15.43;8.25;;;;;;;12.18;99.72;101588.59;4990711;28;20121;-73
2022/10/30 08:10:13;;;;;;;20.67;8.93;;;;;;;12.27;99.79;101583.50;4989807;28;20069;-73
2022/10/30 08:12:40;;;;;;;18.58;8.50;;;;;;;12.36;99.23;101577.41;4989850;28;20070;-74
2022/10/30 08:15:06;;;;;;;18.92;9.43;;;;;;;12.46;99.48;101583.97;5004615;28;20026;-74
2022/10/30 08:17:39;;;;;;;20.15;9.52;;;;;;;12.50;99.52;101566.41;4990167;28;20034;-73
2022/10/30 08:20:05;;;;;;;;;;;;;;;12.59;98.21;101565.78;4990449;28;20049;-73
2022/10/30 08:22:30;;;;;;;19.52;8.70;;;;;;;12.62;97.90;101568.28;4998122;28;19914;-73
2022/10/30 08:24:59;;;;;;;23.30;11.18;;;;;;;12.67;98.33;101563.38;4992537;28;20068;-74
2022/10/30 08:27:26;;;;;;;17.73;10.00;;;;;;;12.75;97.91;101574.63;5003026;28;20627;-73
2022/10/30 08:29:52;;;;;;;18.45;9.00;;;;;;;12.78;98.41;101581.75;5007343;28;20144;-73
2022/10/30 08:32:17;;;;;;;16.92;9.15;;;;;;;12.86;98.74;101593.00;4990063;28;20478;-73
2022/10/30 08:35:03;;;;;;;22.17;10.23;;;;;;;12.93;98.98;101598.91;4990875;28;20058;-73
2022/10/30 08:37:28;;;;;;;19.98;9.23;;;;;;;13.00;98.67;101590.16;4989491;28;20046;-73
2022/10/30 08:39:54;;;;;;;21.75;9.43;;;;;;;13.10;99.25;101584.91;5004286;28;20038;-73
2022/10/30 08:42:34;;;;;;;21.70;11.13;;;;;;;13.19;99.11;101576.06;5009152;28;20045;-73
2022/10/30 08:45:05;;;;;;;17.92;9.68;;;;;;;13.31;99.49;101579.81;5002799;28;20033;-73
2022/10/30 08:48:04;;;;;;;20.52;11.15;;;;;;;13.46;99.21;101586.03;4986896;28;20068;-73
2022/10/30 08:50:34;;;;;;;16.38;9.30;;;;;;;13.49;97.89;101577.63;5008692;28;20060;-73
2022/10/30 08:53:05;;;;;;;23.77;10.35;;;;;;;13.63;97.22;101582.06;5007746;28;20076;-74
2022/10/30 08:55:33;;;;;;;24.40;11.27;;;;;;;13.76;97.70;101585.66;5008780;28;20638;-73
2022/10/30 08:58:01;;;;;;;20.33;10.20;;;;;;;13.86;97.59;101580.38;5008336;28;20374;-74
2022/10/30 09:00:27;;;;;;;20.45;9.40;;;;;;;13.98;96.73;101583.03;5001616;28;20042;-73
2022/10/30 09:03:10;;;;;;;21.65;10.65;;;;;;;14.10;96.08;101589.47;4990573;28;20046;-73
2022/10/30 09:06:08;;;;;;;17.38;10.93;;;;;;;14.26;95.38;101578.22;4978280;28;20066;-74
2022/10/30 09:09:08;;;;;;;23.40;10.25;;;;;;;14.46;96.74;101584.94;4968050;28;20133;-73
2022/10/30 09:11:43;;;;;;;17.20;9.85;;;;;;;14.59;94.09;101571.16;4981423;28;20121;-73
2022/10/30 09:14:09;;;;;;;18.17;9.50;;;;;;;14.75;95.24;101567.13;4989425;28;20184;-73
2022/10/30 09:16:34;;;;;;;16.23;9.32;;;;;;;14.90;94.11;101567.78;4989084;28;20042;-72
2022/10/30 09:18:59;;;;;;;22.52;9.68;;;;;;;15.12;93.59;101556.00;4989518;28;20434;-74
2022/10/30 09:21:25;;;;;;;20.25;11.30;;;;;;;15.37;94.90;101548.50;4990107;28;20038;-74
2022/10/30 09:23:52;;;;;;;22.45;11.18;;;;;;;15.59;94.62;101545.75;4989012;28;20030;-74
2022/10/30 09:26:35;;;;;;;18.83;9.80;;;;;;;15.92;92.57;101550.34;4990178;28;20042;-74
2022/10/30 09:29:21;;;;;;;20.95;9.15;;;;;;;16.19;91.19;101562.75;4990870;28;20050;-73
2022/10/30 09:32:07;;;;;;;15.73;7.97;;;;;;;16.31;88.53;101559.81;4989149;28;20061;-73
2022/10/30 09:34:37;;;;;;;14.65;8.25;;;;;;;16.42;85.69;101563.53;5006768;28;20796;-74
2022/10/30 09:37:13;;;;;;;21.08;8.57;;;;;;;16.51;87.25;101557.25;5008131;28;20042;-74
2022/10/30 09:39:42;;;;;;;19.95;9.50;;;;;;;16.66;86.68;101560.56;4993688;28;20172;-73
2022/10/30 09:42:26;;;;;;;19.80;8.73;;;;;;;16.84;88.08;101556.22;4988492;28;20462;-74
2022/10/30 09:45:14;;;;;;;18.33;8.45;;;;;;;16.93;85.68;101566.44;4988371;28;20153;-75
2022/10/30 09:48:18;;;;;;;20.58;10.27;;;;;;;17.02;85.25;101573.88;5001017;28;20046;-73
2022/10/30 09:51:01;;;;;;;21.60;7.60;;;;;;;17.16;84.42;101583.66;4996926;28;20034;-74
2022/10/30 09:53:44;;;;;;;17.02;7.40;;;;;;;17.12;83.99;101593.16;4989384;28;20104;-74
2022/10/30 09:56:29;;;;;;;18.80;7.57;;;;;;;17.12;83.91;101590.41;4989316;28;20054;-73
2022/10/30 09:59:18;;;;;;;14.55;7.40;;;;;;;17.17;84.66;101601.00;4997724;28;20041;-73
2022/10/30 10:02:13;;;;;;;12.48;7.38;;;;;;;17.15;84.93;101605.75;5001571;28;20069;-73
2022/10/30 10:04:43;;;;;;;17.33;7.70;;;;;;;17.12;81.17;101603.28;5008797;28;20069;-73
2022/10/30 10:07:18;;;;;;;13.80;7.28;;;;;;;17.07;82.69;101595.44;4996044;28;20026;-73
2022/10/30 10:09:55;;;;;;;17.40;7.35;;;;;;;17.06;83.58;101601.94;4973665;28;20461;-75
2022/10/30 10:12:47;;;;;;;22.20;7.40;;;;;;;17.08;84.04;101588.94;4998068;28;20080;-73
2022/10/30 10:15:32;;;;;;;20.67;8.13;;;;;;;17.15;82.64;101584.63;5005335;28;20030;-73
2022/10/30 10:18:01;;;;;;;17.10;8.02;;;;;;;17.25;82.99;101571.81;4989398;28;20445;-74
2022/10/30 10:20:40;;;;;;;17.40;8.13;;;;;;;17.37;82.14;101578.09;5008872;28;20056;-73
2022/10/30 10:23:46;;;;;;;27.55;8.70;;;;;;;17.53;83.42;101583.06;5002118;28;20088;-74
2022/10/30 10:26:42;;;;;;;16.15;6.90;;;;;;;17.60;81.10;101581.53;4988827;28;20046;-72
2022/10/30 10:29:24;;;;;;;30.25;7.75;;;;;;;17.80;81.77;101579.75;5003213;28;20481;-73
2022/10/30 10:31:59;;;;;;;49.45;9.48;;;;;;;18.01;81.49;101568.66;4992343;28;20065;-74
2022/10/30 10:34:50;;;;;;;18.05;8.32;;;;;;;18.07;78.97;101562.56;5002700;28;20050;-73
2022/10/30 10:37:34;;;;;;;16.98;7.68;;;;;;;18.30;78.36;101571.44;5000534;28;20523;-73
2022/10/30 10:40:41;;;;;;;21.85;8.70;;;;;;;18.54;80.48;101566.38;4996964;28;20224;-73
2022/10/30 10:43:21;;;;;;;21.80;8.38;;;;;;;18.64;78.93;101557.22;4988945;28;20085;-72
2022/10/30 10:45:55;;;;;;;17.67;7.40;;;;;;;18.62;78.08;101554.63;5000250;28;20091;-73
2022/10/30 10:48:55;;;;;;;15.45;7.25;;;;;;;18.78;78.63;101554.91;4996180;28;20501;-73
2022/10/30 10:51:32;;;;;;;18.13;7.22;;;;;;;18.88;78.32;101560.41;4998871;28;20386;-73
2022/10/30 10:54:30;;;;;;;13.25;6.60;;;;;;;19.01;78.33;101569.25;4994872;28;20034;-74
2022/10/30 10:56:58;;;;;;;13.85;6.35;;;;;;;19.29;76.18;101558.28;4977517;28;20042;-73
2022/10/30 10:59:38;;;;;;;15.07;6.15;;;;;;;19.26;73.81;101564.13;4995392;28;20025;-73
2022/10/30 11:02:04;;;;;;;17.42;5.80;;;;;;;19.30;73.38;101560.03;4990101;28;20057;-73
2022/10/30 11:04:40;;;;;;;15.43;5.65;;;;;;;19.36;73.41;101574.09;4999614;28;20034;-74
2022/10/30 11:07:27;;;;;;;20.60;6.50;;;;;;;19.49;75.71;101559.97;4993856;28;20026;-73
2022/10/30 11:09:54;;;;;;;15.90;6.10;;;;;;;19.64;72.63;101556.75;4992505;28;20038;-73
2022/10/30 11:12:24;;;;;;;21.38;6.80;;;;;;;19.82;71.92;101557.66;5006466;28;20034;-74
2022/10/30 11:14:49;;;;;;;17.52;6.70;;;;;;;19.92;69.47;101547.44;4991280;28;20399;-74
2022/10/30 11:17:27;;;;;;;13.70;6.03;;;;;;;19.95;71.58;101547.09;5007856;28;20029;-72
2022/10/30 11:20:10;;;;;;;13.93;6.38;;;;;;;19.91;69.25;101548.47;4993462;28;20042;-73
2022/10/30 11:22:43;;;;;;;18.98;6.35;;;;;;;20.11;71.26;101536.25;4993070;28;20109;-72
2022/10/30 11:25:31;;;;;;;14.75;6.60;;;;;;;20.23;72.07;101539.63;4993338;28;20034;-72
2022/10/30 11:27:59;;;;;;;20.85;6.47;;;;;;;20.29;71.19;101539.03;5000521;28;20474;-72
2022/10/30 11:30:27;;;;;;;22.00;6.70;;;;;;;20.33;71.31;101542.31;4996179;28;20071;-72
2022/10/30 11:32:54;;;;;;;20.02;6.80;;;;;;;20.36;68.17;101539.25;5000781;28;20050;-72
2022/10/30 11:35:20;;;;;;;19.45;6.32;;;;;;;20.36;68.72;101536.47;5011018;28;20489;-74
2022/10/30 11:37:49;;;;;;;14.18;6.80;;;;;;;20.38;69.68;101549.13;5012756;28;20120;-72
2022/10/30 11:40:22;;;;;;;12.48;7.15;;;;;;;20.41;69.82;101556.22;4993402;28;20038;-72
2022/10/30 11:43:03;;;;;;;14.90;7.25;;;;;;;20.35;70.82;101552.19;4992077;28;20137;-72
2022/10/30 11:45:30;;;;;;;19.42;6.60;;;;;;;20.35;69.67;101545.81;4992748;28;20048;-72